Terminal Aerodrome Forecast
Issued by NWS

Home | Current Version | Previous Version | Text Only | Print | Product List | Glossary On
Versions: 1 2 3 4 5 6 7 8 9 10 11 12 13 14 15 16 17 18 19 20 21 22
000
FTUS43 KDVN 240311 AAA
TAFCID
TAF AMD
KCID 240311Z 2403/2424 16009KT P6SM SCT010 OVC020
      TEMPO 2405/2409 4SM -SHRA BKN020 OVC030
     FM240900 16009KT P6SM TSRA BKN020CB OVC030
     FM241300 18009KT P6SM BKN018 OVC025
     FM241900 20007KT P6SM VCTS SCT025CB BKN035=

USA.gov is the U.S. government's official web portal to all federal, state and local government web resources and services.